Time;durP1;ratioP1;P1;durP2;ratioP2;P2;SDS_P1;SDS_P2;PMS_P1;PMS_P2;Temp;Humidity;BMP_temperature;BMP_pressure;BME280_temperature;BME280_humidity;BME280_pressure;Samples;Min_cycle;Max_cycle;Signal;HPM_P1;HPM_P2
2023/10/09 00:02:11;;;;;;;3.50;3.30;;;8.00;99.90;;;;;;6249329;23;20195;-82
2023/10/09 00:04:41;;;;;;;2.33;2.22;;;;;;;;;;6249114;23;20198;-79
2023/10/09 00:07:10;;;;;;;3.67;3.38;;;8.40;99.90;;;;;;6223647;23;20168;-80
2023/10/09 00:09:47;;;;;;;3.47;3.28;;;8.30;99.90;;;;;;6254307;22;20214;-78
2023/10/09 00:12:22;;;;;;;1.23;1.23;;;7.90;99.90;;;;;;6272523;22;20182;-80
2023/10/09 00:15:08;;;;;;;1.85;1.77;;;7.80;99.90;;;;;;6261079;22;20194;-82
2023/10/09 00:17:37;;;;;;;1.70;1.63;;;;;;;;;;6251892;23;20171;-81
2023/10/09 00:20:17;;;;;;;2.40;2.30;;;8.20;99.90;;;;;;6249944;23;20439;-80
2023/10/09 00:22:46;;;;;;;2.03;1.92;;;8.00;99.90;;;;;;6248979;23;20234;-80
2023/10/09 00:25:22;;;;;;;0.55;0.55;;;7.60;99.90;;;;;;6249435;23;20179;-80
2023/10/09 00:27:50;;;;;;;0.93;0.93;;;;;;;;;;6250598;23;20168;-80
2023/10/09 00:30:21;;;;;;;2.00;1.90;;;7.40;99.90;;;;;;6249521;23;20234;-80
2023/10/09 00:35:36;;;;;;;0.50;0.50;;;7.50;99.90;;;;;;6270553;22;20182;-81
2023/10/09 00:40:52;;;;;;;0.98;0.93;;;7.50;99.90;;;;;;6259769;23;20182;-79
2023/10/09 00:43:19;;;;;;;0.55;0.55;;;7.80;99.90;;;;;;6252488;23;20164;-81
2023/10/09 00:45:47;;;;;;;0.50;0.50;;;7.70;99.90;;;;;;6250741;23;20239;-80
2023/10/09 00:48:22;;;;;;;0.50;0.50;;;7.60;99.90;;;;;;6250285;23;20198;-81
2023/10/09 00:50:52;;;;;;;0.60;0.60;;;;;;;;;;6249928;23;20191;-80
2023/10/09 00:53:30;;;;;;;1.70;1.60;;;8.00;99.90;;;;;;6249188;23;20530;-80
2023/10/09 00:56:06;;;;;;;0.60;0.60;;;7.30;99.90;;;;;;6249769;23;20168;-80
2023/10/09 00:58:35;;;;;;;3.13;2.88;;;7.50;99.90;;;;;;6249103;23;20280;-80
2023/10/09 01:01:04;;;;;;;3.92;3.72;;;;;;;;;;6249677;23;20155;-81
2023/10/09 01:03:33;;;;;;;0.88;0.88;;;;;;;;;;6248886;23;20175;-81
2023/10/09 01:11:18;;;;;;;0.80;0.80;;;7.90;99.90;;;;;;6248720;23;20204;-81
2023/10/09 01:16:24;;;;;;;0.88;0.88;;;8.20;99.90;;;;;;6249278;23;20168;-80
2023/10/09 01:18:53;;;;;;;1.05;1.05;;;8.30;99.90;;;;;;6249554;23;20167;-81
2023/10/09 01:21:26;;;;;;;0.88;0.88;;;7.90;99.90;;;;;;6249827;23;20179;-81
2023/10/09 01:24:03;;;;;;;1.40;1.40;;;7.80;99.90;;;;;;6222939;23;20187;-81
2023/10/09 01:26:39;;;;;;;0.63;0.63;;;7.80;99.90;;;;;;6210537;23;20156;-82
2023/10/09 01:29:14;;;;;;;0.98;0.98;;;7.90;99.90;;;;;;6267640;23;20179;-81
2023/10/09 01:34:23;;;;;;;0.95;0.95;;;7.70;99.90;;;;;;6251564;23;20202;-81
2023/10/09 01:36:55;;;;;;;0.82;0.82;;;7.40;99.90;;;;;;6252394;23;20194;-81
2023/10/09 01:39:23;;;;;;;1.85;1.75;;;7.80;99.90;;;;;;6252642;23;20630;-80
2023/10/09 01:42:05;;;;;;;2.15;2.05;;;7.90;99.90;;;;;;6252634;23;20614;-81
2023/10/09 01:44:42;;;;;;;2.75;2.65;;;7.90;99.90;;;;;;6252501;23;20412;-81
2023/10/09 01:47:18;;;;;;;0.50;0.50;;;8.00;99.90;;;;;;6252428;23;20171;-81
2023/10/09 01:49:49;;;;;;;1.20;1.20;;;7.50;99.90;;;;;;6253190;23;20266;-81
2023/10/09 01:52:17;;;;;;;6.53;2.50;;;;;;;;;;6253464;23;20163;-80
2023/10/09 01:54:49;;;;;;;2.58;1.65;;;7.60;99.90;;;;;;6254165;23;20207;-79
2023/10/09 01:57:24;;;;;;;1.30;1.20;;;7.40;99.90;;;;;;6255238;23;20156;-81
2023/10/09 01:59:55;;;;;;;0.50;0.50;;;7.80;99.90;;;;;;6229256;23;20181;-82
2023/10/09 02:02:33;;;;;;;0.50;0.50;;;8.50;99.90;;;;;;6256613;23;20183;-81
2023/10/09 02:05:09;;;;;;;0.82;0.82;;;7.60;99.90;;;;;;6231008;23;20190;-81
2023/10/09 02:07:52;;;;;;;0.60;0.60;;;7.90;99.90;;;;;;6255188;23;20190;-79
2023/10/09 02:10:25;;;;;;;0.50;0.50;;;7.80;99.90;;;;;;6258223;23;20191;-80
2023/10/09 02:12:57;;;;;;;3.90;1.20;;;7.60;99.90;;;;;;6257138;23;20164;-80
2023/10/09 02:20:48;;;;;;;0.60;0.60;;;8.20;99.90;;;;;;6251591;23;20171;-81
2023/10/09 02:23:25;;;;;;;0.50;0.50;;;;;;;;;;6251206;23;20187;-80
2023/10/09 02:26:02;;;;;;;0.50;0.50;;;7.80;99.90;;;;;;6251793;23;20191;-79
2023/10/09 02:28:32;;;;;;;0.93;0.93;;;7.90;99.90;;;;;;6252742;23;20206;-79
2023/10/09 02:31:13;;;;;;;1.50;1.48;;;;;;;;;;6256848;23;20208;-80
2023/10/09 02:33:40;;;;;;;0.60;0.60;;;8.40;99.90;;;;;;6270661;22;20187;-79
2023/10/09 02:36:08;;;;;;;0.70;0.70;;;8.10;99.90;;;;;;6263070;22;20206;-80
2023/10/09 02:38:38;;;;;;;1.00;1.00;;;8.20;99.90;;;;;;6231929;23;20183;-80
2023/10/09 02:43:34;;;;;;;0.95;0.95;;;8.20;99.90;;;;;;6252016;23;20251;-81
2023/10/09 02:46:14;;;;;;;0.95;0.95;;;8.00;99.90;;;;;;6224368;23;20175;-80
2023/10/09 02:48:50;;;;;;;0.50;0.50;;;;;;;;;;6249843;23;20183;-80
2023/10/09 02:53:57;;;;;;;1.40;1.30;;;8.00;99.90;;;;;;6250244;23;20167;-80
2023/10/09 02:56:43;;;;;;;1.85;1.60;;;7.80;99.90;;;;;;6250785;23;20187;-81
2023/10/09 02:59:10;;;;;;;0.50;0.50;;;;;;;;;;6251068;23;20168;-81
2023/10/09 03:01:40;;;;;;;0.52;0.52;;;8.10;99.90;;;;;;6223377;23;20187;-81
2023/10/09 03:04:10;;;;;;;0.70;0.70;;;7.50;99.90;;;;;;6250900;23;20210;-80
2023/10/09 03:06:45;;;;;;;1.58;1.48;;;8.30;99.90;;;;;;6251071;23;20369;-79
2023/10/09 03:09:17;;;;;;;0.60;0.60;;;;;;;;;;6251163;23;20479;-80
2023/10/09 03:11:53;;;;;;;0.70;0.70;;;7.60;99.90;;;;;;6250692;23;20199;-80
2023/10/09 03:14:28;;;;;;;0.60;0.60;;;7.80;99.90;;;;;;6248322;23;20399;-80
2023/10/09 03:16:56;;;;;;;0.60;0.60;;;8.10;99.90;;;;;;6251664;23;20189;-81
2023/10/09 03:19:26;;;;;;;0.50;0.50;;;7.90;99.90;;;;;;6252415;23;20198;-79
2023/10/09 03:21:58;;;;;;;0.50;0.50;;;7.80;99.90;;;;;;6253217;23;20436;-81
2023/10/09 03:24:30;;;;;;;0.50;0.50;;;7.70;99.90;;;;;;6226377;23;20167;-79
2023/10/09 03:26:58;;;;;;;0.52;0.52;;;7.50;99.90;;;;;;6250554;23;20219;-80
2023/10/09 03:29:27;;;;;;;0.60;0.60;;;;;;;;;;6249873;23;20367;-80
2023/10/09 03:31:56;;;;;;;1.05;1.05;;;;;;;;;;6249017;23;20215;-81
2023/10/09 03:34:24;;;;;;;1.60;1.50;;;;;;;;;;6249340;23;20191;-80
2023/10/09 03:37:03;;;;;;;1.40;1.30;;;;;;;;;;6248208;23;20183;-80
2023/10/09 03:39:40;;;;;;;0.50;0.50;;;7.70;99.90;;;;;;6257950;22;20180;-80
2023/10/09 03:42:18;;;;;;;0.40;0.40;;;7.90;99.90;;;;;;6268309;22;20174;-82
2023/10/09 03:44:52;;;;;;;2.10;1.58;;;7.60;99.90;;;;;;6255024;23;20213;-80
2023/10/09 03:47:22;;;;;;;0.88;0.88;;;7.70;99.90;;;;;;6250817;23;20195;-83
2023/10/09 03:49:53;;;;;;;0.60;0.60;;;7.50;99.90;;;;;;6251210;23;20449;-85
2023/10/09 03:52:25;;;;;;;0.50;0.50;;;7.90;99.90;;;;;;6251640;23;20410;-84
2023/10/09 03:54:53;;;;;;;0.50;0.50;;;;;;;;;;6225340;23;20230;-83
2023/10/09 03:57:21;;;;;;;0.50;0.50;;;;;;;;;;6225244;23;20176;-83
2023/10/09 03:59:51;;;;;;;0.40;0.40;;;;;;;;;;6253029;23;20191;-82
2023/10/09 04:02:19;;;;;;;0.50;0.50;;;7.50;99.90;;;;;;6250179;23;20186;-85
2023/10/09 04:04:50;;;;;;;0.70;0.70;;;7.60;99.90;;;;;;6251973;23;20207;-82
2023/10/09 04:07:18;;;;;;;0.40;0.40;;;7.70;99.90;;;;;;6252940;23;20191;-88
2023/10/09 04:09:53;;;;;;;0.40;0.40;;;7.30;99.90;;;;;;6225970;23;20183;-86
2023/10/09 04:12:20;;;;;;;1.38;1.38;;;7.20;99.90;;;;;;6252640;23;20163;-83
2023/10/09 04:14:54;;;;;;;1.40;1.15;;;7.50;99.90;;;;;;6250493;23;20199;-85
2023/10/09 04:17:33;;;;;;;1.05;0.73;;;7.20;99.90;;;;;;6252342;23;20195;-81
2023/10/09 04:22:59;;;;;;;0.47;0.47;;;7.10;99.90;;;;;;6254253;23;20171;-80
2023/10/09 04:25:29;;;;;;;0.40;0.40;;;7.00;99.90;;;;;;6254271;23;20190;-79
2023/10/09 04:30:53;;;;;;;0.57;0.57;;;7.20;99.90;;;;;;6249146;23;20191;-83
2023/10/09 04:36:22;;;;;;;0.40;0.40;;;7.10;99.90;;;;;;6249436;23;20171;-81
2023/10/09 04:44:19;;;;;;;2.58;0.80;;;7.20;99.90;;;;;;6250295;23;20167;-82
2023/10/09 04:57:46;;;;;;;0.50;0.50;;;7.60;99.90;;;;;;6256478;23;20164;-84
2023/10/09 05:00:46;;;;;;;0.70;0.70;;;6.90;99.90;;;;;;6262340;22;20155;-84
2023/10/09 05:03:12;;;;;;;0.50;0.50;;;6.80;99.90;;;;;;6254682;22;20204;-87
2023/10/09 05:05:48;;;;;;;1.45;1.35;;;8.00;99.90;;;;;;6243444;22;20231;-86
2023/10/09 05:08:21;;;;;;;0.50;0.50;;;7.20;99.90;;;;;;6272517;22;20163;-85
2023/10/09 05:16:25;;;;;;;0.50;0.50;;;7.20;99.90;;;;;;6257667;23;20179;-84
2023/10/09 05:19:05;;;;;;;0.40;0.40;;;7.10;99.90;;;;;;6259676;23;20159;-86
2023/10/09 05:32:15;;;;;;;0.40;0.40;;;7.20;99.90;;;;;;6247092;22;20195;-87
2023/10/09 05:37:32;;;;;;;0.60;0.60;;;7.20;99.90;;;;;;6254065;22;20163;-88
2023/10/09 05:42:59;;;;;;;0.40;0.40;;;7.20;99.90;;;;;;6252062;23;20174;-87
2023/10/09 05:46:07;;;;;;;3.30;1.98;;;7.50;99.90;;;;;;6255488;22;20163;-88
2023/10/09 06:04:49;;;;;;;1.35;1.13;;;7.10;99.90;;;;;;6253905;23;20187;-84
2023/10/09 06:07:40;;;;;;;0.98;0.98;;;7.10;99.90;;;;;;6252860;23;20203;-84
2023/10/09 06:10:19;;;;;;;0.50;0.50;;;7.00;99.90;;;;;;6252234;23;20171;-83
2023/10/09 06:12:49;;;;;;;0.47;0.47;;;6.70;99.90;;;;;;6253122;23;20198;-83
2023/10/09 06:16:01;;;;;;;0.40;0.40;;;;;;;;;;6254458;23;20172;-82
2023/10/09 06:18:26;;;;;;;0.50;0.50;;;7.00;99.90;;;;;;6248921;23;20230;-81
2023/10/09 06:21:08;;;;;;;0.85;0.85;;;7.40;99.90;;;;;;6250378;23;20167;-80
2023/10/09 06:24:19;;;;;;;0.40;0.40;;;7.10;99.90;;;;;;6254769;23;20174;-84
2023/10/09 06:26:32;;;;;;;1.30;0.93;;;7.00;99.90;;;;;;6238682;23;20183;-85
2023/10/09 06:29:15;;;;;;;0.73;0.73;;;7.00;99.90;;;;;;6252222;23;20179;-83
2023/10/09 06:32:05;;;;;;;3.00;1.35;;;7.00;99.90;;;;;;6252757;23;20229;-78
2023/10/09 06:34:52;;;;;;;0.45;0.45;;;7.10;99.90;;;;;;6252871;23;20191;-83
2023/10/09 06:42:51;;;;;;;0.95;0.95;;;7.20;99.90;;;;;;6252639;23;20432;-81
2023/10/09 06:45:18;;;;;;;0.50;0.50;;;7.10;99.90;;;;;;6251309;23;20448;-79
2023/10/09 06:47:55;;;;;;;1.05;1.05;;;7.10;99.90;;;;;;6252092;23;20168;-81
2023/10/09 06:50:24;;;;;;;0.40;0.40;;;6.90;99.90;;;;;;6251953;23;20164;-78
2023/10/09 06:53:19;;;;;;;0.63;0.63;;;7.20;99.90;;;;;;6249615;23;20203;-82
2023/10/09 06:55:51;;;;;;;0.52;0.52;;;7.40;99.90;;;;;;6251512;23;20382;-81
2023/10/09 06:58:41;;;;;;;0.95;0.95;;;7.30;99.90;;;;;;6260770;23;20274;-80
2023/10/09 07:01:43;;;;;;;0.50;0.50;;;7.00;99.90;;;;;;6254252;23;20179;-78
2023/10/09 07:06:50;;;;;;;0.40;0.40;;;7.40;99.90;;;;;;6251101;23;20210;-81
2023/10/09 07:09:19;;;;;;;2.88;2.63;;;;;;;;;;6250864;23;20488;-85
2023/10/09 07:17:04;;;;;;;0.47;0.47;;;7.60;99.90;;;;;;6253030;23;20188;-81
2023/10/09 07:22:15;;;;;;;0.40;0.40;;;7.40;99.90;;;;;;6250379;23;20184;-83
2023/10/09 07:24:49;;;;;;;0.40;0.40;;;7.90;99.90;;;;;;6265634;22;20171;-80
2023/10/09 07:27:17;;;;;;;0.73;0.73;;;7.60;99.90;;;;;;6273397;22;20152;-83
2023/10/09 07:29:47;;;;;;;1.20;1.08;;;;;;;;;;6235618;23;20180;-78
2023/10/09 07:32:20;;;;;;;0.70;0.70;;;7.50;99.90;;;;;;6255457;23;20208;-81
2023/10/09 07:34:53;;;;;;;2.28;2.17;;;7.60;99.90;;;;;;6252167;23;20192;-83
2023/10/09 07:37:23;;;;;;;0.50;0.50;;;7.80;99.90;;;;;;6252750;23;20176;-83
2023/10/09 07:39:57;;;;;;;1.35;1.25;;;7.30;99.90;;;;;;6251315;23;20222;-79
2023/10/09 07:48:02;;;;;;;0.40;0.40;;;7.50;99.90;;;;;;6251183;23;20168;-81
2023/10/09 07:50:40;;;;;;;0.90;0.90;;;7.90;99.90;;;;;;6254790;23;20168;-85
2023/10/09 07:53:26;;;;;;;0.60;0.60;;;7.90;99.90;;;;;;6252917;23;20199;-85
2023/10/09 07:56:06;;;;;;;0.50;0.50;;;8.00;99.90;;;;;;6253209;23;20236;-80
2023/10/09 07:58:45;;;;;;;0.60;0.60;;;7.60;99.90;;;;;;6253509;23;20163;-78
2023/10/09 08:01:22;;;;;;;0.40;0.40;;;7.90;99.90;;;;;;6253005;23;20404;-83
2023/10/09 08:04:04;;;;;;;1.30;1.20;;;8.00;99.90;;;;;;6228097;23;20179;-82
2023/10/09 08:06:38;;;;;;;0.60;0.60;;;7.90;99.90;;;;;;6268901;22;20194;-80
2023/10/09 08:12:13;;;;;;;0.80;0.80;;;7.80;99.90;;;;;;6251901;23;20476;-77
2023/10/09 08:14:45;;;;;;;0.63;0.63;;;7.70;99.90;;;;;;6251008;23;20167;-83
2023/10/09 08:17:16;;;;;;;2.55;1.67;;;8.00;99.90;;;;;;6224851;23;20167;-80
2023/10/09 08:19:54;;;;;;;1.92;1.83;;;8.20;99.90;;;;;;6251248;23;20180;-78
2023/10/09 08:24:57;;;;;;;0.50;0.50;;;8.10;99.90;;;;;;6252355;23;20179;-79
2023/10/09 08:30:28;;;;;;;0.40;0.40;;;8.40;99.90;;;;;;6251214;23;20171;-80
2023/10/09 08:33:02;;;;;;;0.70;0.70;;;8.40;99.90;;;;;;6250874;23;20256;-84
2023/10/09 08:35:48;;;;;;;1.17;1.08;;;8.60;99.90;;;;;;6227240;23;20187;-86
2023/10/09 08:38:23;;;;;;;0.60;0.60;;;8.40;99.90;;;;;;6252549;23;20252;-83
2023/10/09 08:40:58;;;;;;;1.23;1.23;;;7.10;99.90;;;;;;6225404;23;20262;-82
2023/10/09 08:43:30;;;;;;;0.70;0.70;;;7.90;99.90;;;;;;6252052;23;20171;-78
2023/10/09 08:46:00;;;;;;;4.10;1.55;;;7.80;99.90;;;;;;6250744;23;20191;-80
2023/10/09 08:48:29;;;;;;;0.47;0.47;;;8.00;99.90;;;;;;6251379;23;20160;-89
2023/10/09 08:50:56;;;;;;;0.50;0.50;;;7.90;99.90;;;;;;6251782;23;20184;-79
2023/10/09 08:53:24;;;;;;;0.50;0.50;;;9.00;99.90;;;;;;6257183;23;20211;-81
2023/10/09 08:55:51;;;;;;;0.50;0.50;;;8.00;99.90;;;;;;6233733;23;20237;-86
2023/10/09 08:58:37;;;;;;;0.50;0.50;;;;;;;;;;6262933;22;20174;-79
2023/10/09 09:01:04;;;;;;;0.80;0.80;;;7.70;99.90;;;;;;6263391;23;20241;-80
2023/10/09 09:03:40;;;;;;;0.50;0.50;;;7.90;99.90;;;;;;6256563;23;20195;-83
2023/10/09 09:06:08;;;;;;;0.50;0.50;;;;;;;;;;6225750;23;20184;-82
2023/10/09 09:08:36;;;;;;;0.50;0.50;;;7.70;99.90;;;;;;6256919;23;20702;-82
2023/10/09 09:11:12;;;;;;;0.55;0.55;;;8.20;99.90;;;;;;6251358;23;20194;-83
2023/10/09 09:13:50;;;;;;;0.93;0.93;;;7.30;99.90;;;;;;6226003;23;20244;-85
2023/10/09 09:16:21;;;;;;;0.50;0.50;;;7.60;99.90;;;;;;6250904;23;20232;-84
2023/10/09 09:19:02;;;;;;;0.50;0.50;;;7.70;99.90;;;;;;6225924;23;20221;-81
2023/10/09 09:21:38;;;;;;;1.08;1.08;;;8.00;99.90;;;;;;6252456;23;20175;-85
2023/10/09 09:26:59;;;;;;;0.50;0.50;;;7.70;99.90;;;;;;6251267;23;20195;-83
2023/10/09 09:29:38;;;;;;;0.70;0.70;;;8.00;99.90;;;;;;6254577;23;20214;-85
2023/10/09 09:32:20;;;;;;;0.70;0.70;;;7.80;99.90;;;;;;6225556;23;20203;-83
2023/10/09 09:34:49;;;;;;;2.35;2.25;;;7.90;99.90;;;;;;6240554;22;20176;-80
2023/10/09 09:37:28;;;;;;;0.40;0.40;;;7.80;99.90;;;;;;6271251;22;20159;-80
2023/10/09 09:40:14;;;;;;;1.35;1.02;;;7.90;99.90;;;;;;6271083;22;20172;-85
2023/10/09 09:42:48;;;;;;;0.90;0.90;;;8.10;99.90;;;;;;6266177;22;20182;-84
2023/10/09 09:45:16;;;;;;;0.60;0.60;;;8.40;99.90;;;;;;6257103;23;20167;-82
2023/10/09 09:47:51;;;;;;;1.65;1.55;;;7.30;99.90;;;;;;6265104;22;20183;-83
2023/10/09 09:50:26;;;;;;;0.50;0.50;;;;;;;;;;6269729;22;20155;-81
2023/10/09 09:52:54;;;;;;;0.50;0.50;;;7.70;99.90;;;;;;6242160;23;20190;-80
2023/10/09 09:55:33;;;;;;;0.50;0.50;;;8.00;99.90;;;;;;6242874;23;20229;-82
2023/10/09 09:58:06;;;;;;;0.60;0.60;;;8.00;99.90;;;;;;6260714;23;20167;-86
2023/10/09 10:03:18;;;;;;;0.50;0.50;;;8.10;99.90;;;;;;6263445;23;20203;-86
2023/10/09 10:05:48;;;;;;;0.90;0.90;;;7.60;99.90;;;;;;6232161;23;20148;-83
2023/10/09 10:08:21;;;;;;;0.50;0.50;;;8.50;99.90;;;;;;6233560;23;20236;-84
2023/10/09 10:11:13;;;;;;;1.10;1.10;;;8.30;99.90;;;;;;6258907;22;20444;-83
2023/10/09 10:13:41;;;;;;;0.63;0.63;;;8.40;99.90;;;;;;6258493;22;20214;-83
2023/10/09 10:16:20;;;;;;;0.95;0.95;;;8.20;99.90;;;;;;6259087;23;20376;-82
2023/10/09 10:19:21;;;;;;;0.80;0.80;;;8.30;99.90;;;;;;6231077;23;20630;-80
2023/10/09 10:21:49;;;;;;;0.50;0.50;;;8.30;99.90;;;;;;6262922;22;20190;-81
2023/10/09 10:24:29;;;;;;;0.98;0.98;;;8.40;99.90;;;;;;6225897;22;20214;-80
2023/10/09 10:27:23;;;;;;;1.38;1.38;;;8.70;99.90;;;;;;6261239;23;20478;-83
2023/10/09 10:32:53;;;;;;;0.50;0.50;;;7.80;99.90;;;;;;6227625;23;20248;-86
2023/10/09 10:36:07;;;;;;;0.70;0.70;;;;;;;;;;6206855;22;20219;-79
2023/10/09 10:38:39;;;;;;;0.50;0.50;;;8.20;99.90;;;;;;6228405;22;20215;-82
2023/10/09 10:41:22;;;;;;;0.75;0.75;;;8.20;99.90;;;;;;6253850;22;20202;-84
2023/10/09 10:46:38;;;;;;;2.67;2.55;;;8.60;99.90;;;;;;6263566;22;20152;-84
2023/10/09 10:51:47;;;;;;;0.40;0.40;;;;;;;;;;6248585;22;20212;-80
2023/10/09 10:56:59;;;;;;;0.50;0.50;;;8.80;99.90;;;;;;6259799;22;20171;-87
2023/10/09 10:59:41;;;;;;;0.50;0.50;;;8.20;99.90;;;;;;6259931;23;20179;-88
2023/10/09 11:05:14;;;;;;;0.50;0.50;;;8.50;99.90;;;;;;6226600;23;20183;-88
2023/10/09 11:07:38;;;;;;;1.60;1.33;;;;;;;;;;6230554;22;20202;-84
2023/10/09 11:15:57;;;;;;;0.52;0.52;;;8.70;99.90;;;;;;6217289;22;20236;-84
2023/10/09 11:18:26;;;;;;;0.50;0.50;;;8.40;99.90;;;;;;6259153;23;20179;-88
2023/10/09 11:26:25;;;;;;;0.45;0.45;;;9.10;99.90;;;;;;6253789;23;20203;-85
2023/10/09 11:32:19;;;;;;;0.50;0.50;;;9.20;99.90;;;;;;6195769;23;20206;-81
2023/10/09 11:34:53;;;;;;;0.50;0.50;;;9.00;99.90;;;;;;6265916;22;20183;-83
2023/10/09 11:37:38;;;;;;;0.60;0.60;;;9.10;99.90;;;;;;6262759;23;20164;-84
2023/10/09 11:40:23;;;;;;;0.50;0.50;;;9.00;99.90;;;;;;6259368;22;20163;-84
2023/10/09 11:42:57;;;;;;;0.57;0.57;;;;;;;;;;6212935;22;20191;-85
2023/10/09 11:45:37;;;;;;;1.45;1.35;;;;;;;;;;6289682;22;20209;-82
2023/10/09 11:49:25;;;;;;;0.50;0.50;;;9.00;99.90;;;;;;6290653;22;20166;-89
2023/10/09 11:51:19;;;;;;;0.50;0.50;;;9.00;99.90;;;;;;6283279;22;20210;-84
2023/10/09 11:53:50;;;;;;;0.50;0.50;;;;;;;;;;6229947;22;20191;-87
2023/10/09 11:56:21;;;;;;;0.70;0.70;;;9.00;99.90;;;;;;6254843;22;20199;31
2023/10/09 12:01:35;;;;;;;1.17;1.17;;;;;;;;;;6229078;22;20225;-85
2023/10/09 12:04:02;;;;;;;0.82;0.82;;;9.10;99.90;;;;;;6266488;22;20168;-88
2023/10/09 12:09:23;;;;;;;0.50;0.50;;;;;;;;;;6222693;22;20203;-83
2023/10/09 12:12:00;;;;;;;1.15;1.15;;;9.60;99.90;;;;;;6232542;22;20207;-86
2023/10/09 12:14:34;;;;;;;0.50;0.50;;;9.30;99.90;;;;;;6204532;22;20195;-82
2023/10/09 12:17:07;;;;;;;1.15;1.15;;;9.40;99.90;;;;;;6232679;22;20187;-86
2023/10/09 12:19:36;;;;;;;0.50;0.50;;;9.40;99.90;;;;;;6241841;22;20210;-86
2023/10/09 12:22:05;;;;;;;0.50;0.50;;;9.30;99.90;;;;;;6259117;22;20204;-82
2023/10/09 12:29:49;;;;;;;0.50;0.50;;;;;;;;;;6214272;22;20695;-86
2023/10/09 12:34:50;;;;;;;0.82;0.82;;;;;;;;;;6199642;23;20710;-79
2023/10/09 12:39:56;;;;;;;0.90;0.90;;;;;;;;;;6221198;22;20197;-84
2023/10/09 12:45:09;;;;;;;0.60;0.60;;;9.10;99.90;;;;;;6227376;22;20170;-85
2023/10/09 12:53:06;;;;;;;0.60;0.60;;;;;;;;;;6187134;22;20219;-81
2023/10/09 12:55:40;;;;;;;0.60;0.60;;;9.10;99.90;;;;;;6254119;23;20187;-83
2023/10/09 12:58:09;;;;;;;0.70;0.70;;;9.10;99.90;;;;;;6239615;22;20274;-84
2023/10/09 13:01:09;;;;;;;0.75;0.75;;;9.00;99.90;;;;;;6206942;22;20208;-84
2023/10/09 13:03:28;;;;;;;1.52;1.42;;;9.00;99.90;;;;;;6223424;22;20214;-83
2023/10/09 13:05:55;;;;;;;1.40;1.35;;;9.10;99.90;;;;;;6290336;22;20237;-82
2023/10/09 13:08:36;;;;;;;0.95;0.95;;;9.10;99.90;;;;;;6239100;22;20527;-84
2023/10/09 13:11:10;;;;;;;1.10;1.10;;;9.00;99.90;;;;;;6249525;22;21291;-86
2023/10/09 13:13:41;;;;;;;0.80;0.80;;;9.00;99.90;;;;;;6238791;22;20199;-78
2023/10/09 13:16:13;;;;;;;0.50;0.50;;;9.30;99.90;;;;;;6252089;22;20208;-79
2023/10/09 13:18:49;;;;;;;1.23;1.17;;;9.30;99.90;;;;;;6257109;23;20203;-89
2023/10/09 13:21:21;;;;;;;0.50;0.50;;;9.30;99.90;;;;;;6244571;22;20436;-86
2023/10/09 13:23:50;;;;;;;5.57;2.03;;;9.20;99.90;;;;;;6233941;22;20236;-82
2023/10/09 13:26:19;;;;;;;0.50;0.50;;;9.30;99.90;;;;;;6256321;22;20669;-90
2023/10/09 13:29:01;;;;;;;0.93;0.93;;;9.10;99.90;;;;;;6241069;22;20230;-85
2023/10/09 13:31:33;;;;;;;1.40;1.30;;;;;;;;;;6270973;22;20187;-84
2023/10/09 13:34:06;;;;;;;0.50;0.50;;;9.30;99.90;;;;;;6262954;22;20214;-83
2023/10/09 13:36:34;;;;;;;1.80;1.70;;;;;;;;;;6262940;22;20191;-85
2023/10/09 13:39:24;;;;;;;0.50;0.50;;;9.30;99.90;;;;;;6251846;22;20234;-82
2023/10/09 13:41:58;;;;;;;0.50;0.50;;;9.30;99.90;;;;;;6271754;22;20179;-86
2023/10/09 13:44:37;;;;;;;0.50;0.50;;;9.40;99.90;;;;;;6266707;22;20182;-88
2023/10/09 13:47:11;;;;;;;1.40;1.40;;;9.40;99.90;;;;;;6257193;23;20172;-87
2023/10/09 13:49:40;;;;;;;2.15;2.05;;;9.30;99.90;;;;;;6261299;23;20159;-86
2023/10/09 13:52:09;;;;;;;0.50;0.50;;;10.90;99.90;;;;;;6259160;23;20203;-87
2023/10/09 13:59:51;;;;;;;0.60;0.60;;;9.30;99.90;;;;;;6258603;22;20315;-88
2023/10/09 14:02:18;;;;;;;0.60;0.60;;;;;;;;;;6232198;23;20178;-87
2023/10/09 14:04:47;;;;;;;0.50;0.50;;;;;;;;;;6256892;23;20211;-87
2023/10/09 14:07:20;;;;;;;0.98;0.98;;;;;;;;;;6235285;23;20228;-89
2023/10/09 14:10:07;;;;;;;0.90;0.90;;;9.50;99.90;;;;;;6271239;22;20156;-86
2023/10/09 14:12:40;;;;;;;0.80;0.80;;;;;;;;;;6237142;22;20197;-85
2023/10/09 14:15:11;;;;;;;0.50;0.50;;;9.20;99.90;;;;;;6272185;22;20172;-84
2023/10/09 14:17:42;;;;;;;0.50;0.50;;;;;;;;;;6267306;22;20549;-86
2023/10/09 14:20:30;;;;;;;1.23;1.23;;;;;;;;;;6257352;23;20178;-83
2023/10/09 14:23:06;;;;;;;1.05;1.05;;;9.40;99.90;;;;;;6239988;22;20209;-83
2023/10/09 14:25:39;;;;;;;0.55;0.55;;;;;;;;;;6240033;22;20194;-87
2023/10/09 14:28:07;;;;;;;0.60;0.60;;;;;;;;;;6286793;22;20182;-82
2023/10/09 14:30:42;;;;;;;1.88;1.77;;;;;;;;;;6287110;22;20178;-84
2023/10/09 14:33:13;;;;;;;0.50;0.50;;;;;;;;;;6287815;22;20237;-85
2023/10/09 14:35:42;;;;;;;0.50;0.50;;;;;;;;;;6293168;22;20143;-82
2023/10/09 14:38:13;;;;;;;0.50;0.50;;;9.50;99.90;;;;;;6249431;22;20182;-85
2023/10/09 14:40:44;;;;;;;1.45;1.35;;;9.40;99.90;;;;;;6300634;22;20151;-84
2023/10/09 14:43:19;;;;;;;0.90;0.90;;;9.60;99.90;;;;;;6278147;22;20171;-85
2023/10/09 14:45:48;;;;;;;2.53;2.35;;;9.30;99.90;;;;;;6303203;22;20173;-82
2023/10/09 14:48:19;;;;;;;1.08;1.08;;;;;;;;;;6283742;22;20182;-85
2023/10/09 14:50:49;;;;;;;0.93;0.93;;;9.50;99.90;;;;;;6253320;22;20210;-83
2023/10/09 14:53:16;;;;;;;0.50;0.50;;;;;;;;;;6283584;22;20219;-78
2023/10/09 14:55:45;;;;;;;0.80;0.80;;;;;;;;;;6281803;22;20175;-82
2023/10/09 14:58:12;;;;;;;0.77;0.77;;;;;;;;;;6257696;22;20191;-78
2023/10/09 15:00:46;;;;;;;0.50;0.50;;;;;;;;;;6281478;22;20367;-84
2023/10/09 15:03:14;;;;;;;0.73;0.73;;;9.20;99.90;;;;;;6282927;22;20620;-83
2023/10/09 15:05:42;;;;;;;0.80;0.80;;;9.20;99.90;;;;;;6255084;22;20183;-82
2023/10/09 15:08:12;;;;;;;1.30;0.90;;;9.00;99.90;;;;;;6288248;22;20181;-82
2023/10/09 15:10:48;;;;;;;0.43;0.43;;;9.10;99.90;;;;;;6290592;22;20159;-79
2023/10/09 15:13:16;;;;;;;0.50;0.50;;;9.10;99.90;;;;;;6282317;22;20206;-83
2023/10/09 15:15:44;;;;;;;0.50;0.50;;;8.90;99.90;;;;;;6283004;22;20351;-84
2023/10/09 15:18:12;;;;;;;0.60;0.60;;;;;;;;;;6256724;22;20529;-84
2023/10/09 15:20:40;;;;;;;0.50;0.50;;;9.00;99.90;;;;;;6284024;22;20221;-84
2023/10/09 15:23:08;;;;;;;0.50;0.50;;;8.90;99.90;;;;;;6297574;22;20187;-81
2023/10/09 15:25:39;;;;;;;0.50;0.50;;;;;;;;;;6301390;22;20181;-81
2023/10/09 15:28:07;;;;;;;0.55;0.55;;;;;;;;;;6303504;22;20174;-83
2023/10/09 15:30:34;;;;;;;0.60;0.60;;;8.90;99.90;;;;;;6292608;22;20198;-82
2023/10/09 15:33:01;;;;;;;1.08;1.05;;;;;;;;;;6259165;22;20206;-84
2023/10/09 15:35:29;;;;;;;0.57;0.57;;;;;;;;;;6264930;22;20383;-80
2023/10/09 15:38:04;;;;;;;0.60;0.60;;;8.70;99.90;;;;;;6285392;22;20167;-83
2023/10/09 15:40:34;;;;;;;3.47;3.17;;;8.80;99.90;;;;;;6284985;22;20171;-84
2023/10/09 15:43:04;;;;;;;0.90;0.90;;;;;;;;;;6283609;22;20170;-84
2023/10/09 15:45:32;;;;;;;0.50;0.50;;;;;;;;;;6293809;22;20193;-83
2023/10/09 15:48:04;;;;;;;0.60;0.60;;;8.90;99.90;;;;;;6255834;22;20198;-83
2023/10/09 15:50:48;;;;;;;0.50;0.50;;;9.30;99.90;;;;;;6256530;22;20186;-82
2023/10/09 15:53:21;;;;;;;0.60;0.60;;;8.60;99.90;;;;;;6256302;22;20220;-85
2023/10/09 15:55:51;;;;;;;2.25;2.15;;;;;;;;;;6280457;22;20168;-82
2023/10/09 15:58:20;;;;;;;0.60;0.60;;;8.30;99.90;;;;;;6255939;22;20261;-83
2023/10/09 16:00:47;;;;;;;0.50;0.50;;;8.80;99.90;;;;;;6280066;22;20194;-82
2023/10/09 16:03:14;;;;;;;0.60;0.60;;;;;;;;;;6279599;22;20186;-83
2023/10/09 16:05:42;;;;;;;0.90;0.90;;;;;;;;;;6280213;22;20190;-83
2023/10/09 16:08:09;;;;;;;0.60;0.60;;;9.00;99.90;;;;;;6253586;22;20598;-84
2023/10/09 16:10:36;;;;;;;0.57;0.57;;;8.70;99.90;;;;;;6281553;22;20202;-84
2023/10/09 16:13:12;;;;;;;0.50;0.50;;;;;;;;;;6280718;22;20420;-83
2023/10/09 16:15:45;;;;;;;0.50;0.50;;;;;;;;;;6279948;22;20459;-82
2023/10/09 16:18:14;;;;;;;0.50;0.50;;;;;;;;;;6282201;22;20316;-85
2023/10/09 16:20:46;;;;;;;1.13;0.80;;;;;;;;;;6281116;22;20232;-83
2023/10/09 16:23:13;;;;;;;0.82;0.82;;;;;;;;;;6285560;22;20218;-84
2023/10/09 16:25:40;;;;;;;0.50;0.50;;;8.90;99.90;;;;;;6284705;22;20253;-84
2023/10/09 16:28:08;;;;;;;0.50;0.50;;;;;;;;;;6253701;22;20187;-82
2023/10/09 16:30:35;;;;;;;0.57;0.57;;;8.90;99.90;;;;;;6281405;22;20549;-82
2023/10/09 16:33:05;;;;;;;1.98;1.90;;;8.80;99.90;;;;;;6280462;22;20171;-82
2023/10/09 16:35:37;;;;;;;1.00;1.00;;;;;;;;;;6282426;22;20163;-83
2023/10/09 16:38:11;;;;;;;0.75;0.75;;;8.30;99.90;;;;;;6284513;22;20190;-82
2023/10/09 16:40:39;;;;;;;0.60;0.60;;;8.90;99.90;;;;;;6286791;22;20505;-82
2023/10/09 16:43:13;;;;;;;0.40;0.40;;;8.90;99.90;;;;;;6285652;22;20183;-84
2023/10/09 16:45:43;;;;;;;0.50;0.50;;;8.70;99.90;;;;;;6280161;22;20160;-82
2023/10/09 16:48:11;;;;;;;0.50;0.50;;;;;;;;;;6281135;22;20186;-83
2023/10/09 16:50:39;;;;;;;0.88;0.88;;;8.90;99.90;;;;;;6280931;22;20225;-83
2023/10/09 16:53:10;;;;;;;1.58;1.48;;;;;;;;;;6279021;22;20197;-84
2023/10/09 16:55:41;;;;;;;0.50;0.50;;;8.60;99.90;;;;;;6279947;22;20159;-85
2023/10/09 16:58:09;;;;;;;0.50;0.50;;;8.60;99.90;;;;;;6252809;22;20187;-83